Concho — WDI7438 — position and weather

sailwx.info

Track history (hours):
 
Tides and Currents Weather Stations Pressure Air Temp Water Temp Dewpoint Dewpoint Depression Visibility Wind Speed Wind Dir Waves Ship Positions

Concho

Owner: Kirby Inland Marine LP, Houston, TX. More information available from US FCC via Universal Licensing System and Coast Guard Vessel Documentation Center.

Last reported at 2018-Jan-20 02:28 UTC. Time now 2018-Jan-20 03:01 UTC.
Position N 29°51' W 091°53'.

Length 208 m; draft 2.9 m.

Type: . MMSI: 367728730.

Date/timePositionNaut miles runAvg speedWind from/ knotsBaromVisibWave heightAir tempDewpointWater temp
2018-Jan-20 02:28N 29°51' W 091°53'48 4.0
2018-Jan-19 14:23N 29°37' W 090°59'2 4.3
2018-Jan-19 14:00N 29°36' W 090°58'2 4.2
2018-Jan-19 13:28N 29°34' W 090°56'2 4.5
2018-Jan-19 13:00N 29°33' W 090°54'2 3.7
2018-Jan-19 12:30N 29°32' W 090°52'2 4.5
2018-Jan-19 12:00N 29°32' W 090°50'2 4.5
2018-Jan-19 11:30N 29°32' W 090°47'2 3.9
2018-Jan-19 11:00N 29°33' W 090°45'2 3.8
2018-Jan-19 10:30N 29°34' W 090°43'2 3.4
2018-Jan-19 10:00N 29°36' W 090°43'1 2.6
2018-Jan-19 09:30N 29°37' W 090°42'2 3.2
2018-Jan-19 09:00N 29°36' W 090°40'2 3.3
2018-Jan-19 08:30N 29°35' W 090°38'2 3.5
2018-Jan-19 08:00N 29°35' W 090°37'2 3.4
2018-Jan-19 07:30N 29°34' W 090°35'2 3.6
2018-Jan-19 07:00N 29°34' W 090°33'2 3.9
2018-Jan-19 06:30N 29°34' W 090°31'  
2018-Jan-10 22:38N 29°45' W 095°11'2 5.4
2018-Jan-10 22:13N 29°44' W 095°09'2 7.0
2018-Jan-10 21:54N 29°45' W 095°06'2 4.5
2018-Jan-10 21:24N 29°45' W 095°04'3 6.2
2018-Jan-10 20:58N 29°43' W 095°01'3 6.7
2018-Jan-10 20:30N 29°41' W 094°59'4 7.8
2018-Jan-10 20:00N 29°37' W 094°57'3 6.1
2018-Jan-10 19:30N 29°34' W 094°56'4 8.0
2018-Jan-10 19:00N 29°31' W 094°53'  
Track history (hours):
 
Tides and Currents Weather Stations Pressure Air Temp Water Temp Dewpoint Dewpoint Depression Visibility Wind Speed Wind Dir Waves Ship Positions

Concho

Owner: Kirby Inland Marine LP, Houston, TX. More information available from US FCC via Universal Licensing System and Coast Guard Vessel Documentation Center.

Last reported at 2018-Jan-20 02:28 UTC. Time now 2018-Jan-20 03:01 UTC.
Position N 29°51' W 091°53'.

Length 208 m; draft 2.9 m.

Type: . MMSI: 367728730.

Date/timePositionNaut miles runAvg speedWind from/ knotsBaromVisibWave heightAir tempDewpointWater temp
2018-Jan-20 02:28N 29°51' W 091°53'48 4.0
2018-Jan-19 14:23N 29°37' W 090°59'2 4.3
2018-Jan-19 14:00N 29°36' W 090°58'2 4.2
2018-Jan-19 13:28N 29°34' W 090°56'2 4.5
2018-Jan-19 13:00N 29°33' W 090°54'2 3.7
2018-Jan-19 12:30N 29°32' W 090°52'2 4.5
2018-Jan-19 12:00N 29°32' W 090°50'2 4.5
2018-Jan-19 11:30N 29°32' W 090°47'2 3.9
2018-Jan-19 11:00N 29°33' W 090°45'2 3.8
2018-Jan-19 10:30N 29°34' W 090°43'2 3.4
2018-Jan-19 10:00N 29°36' W 090°43'1 2.6
2018-Jan-19 09:30N 29°37' W 090°42'2 3.2
2018-Jan-19 09:00N 29°36' W 090°40'2 3.3
2018-Jan-19 08:30N 29°35' W 090°38'2 3.5
2018-Jan-19 08:00N 29°35' W 090°37'2 3.4
2018-Jan-19 07:30N 29°34' W 090°35'2 3.6
2018-Jan-19 07:00N 29°34' W 090°33'2 3.9
2018-Jan-19 06:30N 29°34' W 090°31'  
2018-Jan-10 22:38N 29°45' W 095°11'2 5.4
2018-Jan-10 22:13N 29°44' W 095°09'2 7.0
2018-Jan-10 21:54N 29°45' W 095°06'2 4.5
2018-Jan-10 21:24N 29°45' W 095°04'3 6.2
2018-Jan-10 20:58N 29°43' W 095°01'3 6.7
2018-Jan-10 20:30N 29°41' W 094°59'4 7.8
2018-Jan-10 20:00N 29°37' W 094°57'3 6.1
2018-Jan-10 19:30N 29°34' W 094°56'4 8.0
2018-Jan-10 19:00N 29°31' W 094°53'  

Dump ship's entire track history